sensor_id;sensor_type;location;lat;lon;timestamp;temperature;humidity
6443;DHT22;3254;47.372;8.512;2023-09-19T00:02:04;17.80;1.00
6443;DHT22;3254;47.372;8.512;2023-09-19T00:04:33;17.60;1.00
6443;DHT22;3254;47.372;8.512;2023-09-19T00:06:59;17.30;1.00
6443;DHT22;3254;47.372;8.512;2023-09-19T00:09:25;17.10;1.00
6443;DHT22;3254;47.372;8.512;2023-09-19T00:11:53;16.90;1.00
6443;DHT22;3254;47.372;8.512;2023-09-19T00:14:19;16.80;1.00
6443;DHT22;3254;47.372;8.512;2023-09-19T00:16:45;16.70;1.00
6443;DHT22;3254;47.372;8.512;2023-09-19T00:19:12;16.70;1.00
6443;DHT22;3254;47.372;8.512;2023-09-19T00:21:39;16.50;1.00
6443;DHT22;3254;47.372;8.512;2023-09-19T00:24:06;16.60;1.00
6443;DHT22;3254;47.372;8.512;2023-09-19T00:26:32;16.60;1.00
6443;DHT22;3254;47.372;8.512;2023-09-19T00:28:59;16.60;1.00
6443;DHT22;3254;47.372;8.512;2023-09-19T00:31:30;16.70;1.00
6443;DHT22;3254;47.372;8.512;2023-09-19T00:33:56;16.70;1.00
6443;DHT22;3254;47.372;8.512;2023-09-19T00:36:30;16.60;1.00
6443;DHT22;3254;47.372;8.512;2023-09-19T00:38:55;16.60;1.00
6443;DHT22;3254;47.372;8.512;2023-09-19T00:41:21;16.60;1.00
6443;DHT22;3254;47.372;8.512;2023-09-19T00:43:48;16.50;1.00
6443;DHT22;3254;47.372;8.512;2023-09-19T00:46:17;16.40;1.00
6443;DHT22;3254;47.372;8.512;2023-09-19T00:48:45;16.50;1.00
6443;DHT22;3254;47.372;8.512;2023-09-19T00:51:16;16.70;1.00
6443;DHT22;3254;47.372;8.512;2023-09-19T00:53:46;16.60;1.00
6443;DHT22;3254;47.372;8.512;2023-09-19T00:56:13;16.70;1.00
6443;DHT22;3254;47.372;8.512;2023-09-19T00:58:43;16.70;1.00
6443;DHT22;3254;47.372;8.512;2023-09-19T01:01:09;16.70;1.00
6443;DHT22;3254;47.372;8.512;2023-09-19T01:03:37;16.70;1.00
6443;DHT22;3254;47.372;8.512;2023-09-19T01:06:02;16.70;1.00
6443;DHT22;3254;47.372;8.512;2023-09-19T01:08:28;16.70;1.00
6443;DHT22;3254;47.372;8.512;2023-09-19T01:11:14;16.70;1.00
6443;DHT22;3254;47.372;8.512;2023-09-19T01:14:02;16.90;1.00
6443;DHT22;3254;47.372;8.512;2023-09-19T01:16:56;16.80;1.00
6443;DHT22;3254;47.372;8.512;2023-09-19T01:22:48;17.00;1.00
6443;DHT22;3254;47.372;8.512;2023-09-19T01:25:50;16.90;1.00
6443;DHT22;3254;47.372;8.512;2023-09-19T01:31:02;17.10;1.00
6443;DHT22;3254;47.372;8.512;2023-09-19T01:34:01;17.10;1.00
6443;DHT22;3254;47.372;8.512;2023-09-19T01:36:32;17.20;1.00
6443;DHT22;3254;47.372;8.512;2023-09-19T01:39:04;17.20;1.00
6443;DHT22;3254;47.372;8.512;2023-09-19T01:42:03;17.20;1.00
6443;DHT22;3254;47.372;8.512;2023-09-19T01:47:28;16.90;1.00
6443;DHT22;3254;47.372;8.512;2023-09-19T01:50:13;16.80;1.00
6443;DHT22;3254;47.372;8.512;2023-09-19T01:52:53;16.70;1.00
6443;DHT22;3254;47.372;8.512;2023-09-19T01:55:22;16.70;1.00
6443;DHT22;3254;47.372;8.512;2023-09-19T01:58:24;16.80;1.00
6443;DHT22;3254;47.372;8.512;2023-09-19T02:00:53;16.80;1.00
6443;DHT22;3254;47.372;8.512;2023-09-19T02:03:21;16.90;1.00
6443;DHT22;3254;47.372;8.512;2023-09-19T02:05:53;16.90;1.00
6443;DHT22;3254;47.372;8.512;2023-09-19T02:08:20;16.80;1.00
6443;DHT22;3254;47.372;8.512;2023-09-19T02:10:52;16.80;1.00
6443;DHT22;3254;47.372;8.512;2023-09-19T02:13:20;16.80;1.00
6443;DHT22;3254;47.372;8.512;2023-09-19T02:15:46;16.80;1.00
6443;DHT22;3254;47.372;8.512;2023-09-19T02:18:15;16.80;1.00
6443;DHT22;3254;47.372;8.512;2023-09-19T02:20:41;16.80;1.00
6443;DHT22;3254;47.372;8.512;2023-09-19T02:23:12;16.80;1.00
6443;DHT22;3254;47.372;8.512;2023-09-19T02:25:38;16.70;1.00
6443;DHT22;3254;47.372;8.512;2023-09-19T02:28:06;16.80;1.00
6443;DHT22;3254;47.372;8.512;2023-09-19T02:30:32;16.80;1.00
6443;DHT22;3254;47.372;8.512;2023-09-19T02:32:59;16.80;1.00
6443;DHT22;3254;47.372;8.512;2023-09-19T02:35:30;16.80;1.00
6443;DHT22;3254;47.372;8.512;2023-09-19T02:38:00;16.90;1.00
6443;DHT22;3254;47.372;8.512;2023-09-19T02:40:32;17.00;1.00
6443;DHT22;3254;47.372;8.512;2023-09-19T02:43:01;17.00;1.00
6443;DHT22;3254;47.372;8.512;2023-09-19T02:45:27;17.00;1.00
6443;DHT22;3254;47.372;8.512;2023-09-19T02:47:53;17.00;1.00
6443;DHT22;3254;47.372;8.512;2023-09-19T02:50:20;16.90;1.00
6443;DHT22;3254;47.372;8.512;2023-09-19T02:52:46;16.90;1.00
6443;DHT22;3254;47.372;8.512;2023-09-19T02:55:16;16.90;1.00
6443;DHT22;3254;47.372;8.512;2023-09-19T02:58:04;17.00;1.00
6443;DHT22;3254;47.372;8.512;2023-09-19T03:00:34;17.00;1.00
6443;DHT22;3254;47.372;8.512;2023-09-19T03:03:04;17.10;1.00
6443;DHT22;3254;47.372;8.512;2023-09-19T03:05:31;17.10;1.00
6443;DHT22;3254;47.372;8.512;2023-09-19T03:07:58;17.00;1.00
6443;DHT22;3254;47.372;8.512;2023-09-19T03:10:28;17.10;1.00
6443;DHT22;3254;47.372;8.512;2023-09-19T03:12:55;17.10;1.00
6443;DHT22;3254;47.372;8.512;2023-09-19T03:15:21;17.10;1.00
6443;DHT22;3254;47.372;8.512;2023-09-19T03:17:48;17.10;1.00
6443;DHT22;3254;47.372;8.512;2023-09-19T03:20:15;17.10;1.00
6443;DHT22;3254;47.372;8.512;2023-09-19T03:22:46;17.00;1.00
6443;DHT22;3254;47.372;8.512;2023-09-19T03:25:13;17.00;1.00
6443;DHT22;3254;47.372;8.512;2023-09-19T03:27:40;17.00;1.00
6443;DHT22;3254;47.372;8.512;2023-09-19T03:30:08;17.00;1.00
6443;DHT22;3254;47.372;8.512;2023-09-19T03:32:44;17.00;1.00
6443;DHT22;3254;47.372;8.512;2023-09-19T03:35:09;17.00;1.00
6443;DHT22;3254;47.372;8.512;2023-09-19T03:37:44;17.00;1.00
6443;DHT22;3254;47.372;8.512;2023-09-19T03:40:10;17.10;1.00
6443;DHT22;3254;47.372;8.512;2023-09-19T03:42:42;17.10;1.00
6443;DHT22;3254;47.372;8.512;2023-09-19T03:45:09;17.00;1.00
6443;DHT22;3254;47.372;8.512;2023-09-19T03:47:41;17.10;1.00
6443;DHT22;3254;47.372;8.512;2023-09-19T03:50:06;17.10;1.00
6443;DHT22;3254;47.372;8.512;2023-09-19T03:52:34;17.10;1.00
6443;DHT22;3254;47.372;8.512;2023-09-19T03:54:59;17.20;1.00
6443;DHT22;3254;47.372;8.512;2023-09-19T03:57:26;17.30;1.00
6443;DHT22;3254;47.372;8.512;2023-09-19T03:59:51;17.30;1.00
6443;DHT22;3254;47.372;8.512;2023-09-19T04:02:19;17.20;1.00
6443;DHT22;3254;47.372;8.512;2023-09-19T04:04:48;17.10;1.00
6443;DHT22;3254;47.372;8.512;2023-09-19T04:07:14;17.00;1.00
6443;DHT22;3254;47.372;8.512;2023-09-19T04:09:40;17.00;1.00
6443;DHT22;3254;47.372;8.512;2023-09-19T04:12:08;17.00;1.00
6443;DHT22;3254;47.372;8.512;2023-09-19T04:14:34;17.00;1.00
6443;DHT22;3254;47.372;8.512;2023-09-19T04:17:00;16.90;1.00
6443;DHT22;3254;47.372;8.512;2023-09-19T04:19:26;16.90;1.00
6443;DHT22;3254;47.372;8.512;2023-09-19T04:21:52;16.80;1.00
6443;DHT22;3254;47.372;8.512;2023-09-19T04:24:21;16.80;1.00
6443;DHT22;3254;47.372;8.512;2023-09-19T04:26:47;16.90;1.00
6443;DHT22;3254;47.372;8.512;2023-09-19T04:29:13;17.00;1.00
6443;DHT22;3254;47.372;8.512;2023-09-19T04:31:39;17.00;1.00
6443;DHT22;3254;47.372;8.512;2023-09-19T04:34:06;17.00;1.00
6443;DHT22;3254;47.372;8.512;2023-09-19T04:36:36;17.00;1.00
6443;DHT22;3254;47.372;8.512;2023-09-19T04:39:06;17.00;1.00
6443;DHT22;3254;47.372;8.512;2023-09-19T04:41:33;17.10;1.00
6443;DHT22;3254;47.372;8.512;2023-09-19T04:44:00;17.20;1.00
6443;DHT22;3254;47.372;8.512;2023-09-19T04:46:25;17.20;1.00
6443;DHT22;3254;47.372;8.512;2023-09-19T04:48:51;17.20;1.00
6443;DHT22;3254;47.372;8.512;2023-09-19T04:51:18;17.10;1.00
6443;DHT22;3254;47.372;8.512;2023-09-19T04:53:44;17.10;1.00
6443;DHT22;3254;47.372;8.512;2023-09-19T04:56:10;17.10;1.00
6443;DHT22;3254;47.372;8.512;2023-09-19T04:58:36;17.10;1.00
6443;DHT22;3254;47.372;8.512;2023-09-19T05:01:04;17.20;1.00
6443;DHT22;3254;47.372;8.512;2023-09-19T05:03:29;17.10;1.00
6443;DHT22;3254;47.372;8.512;2023-09-19T05:05:56;17.10;1.00
6443;DHT22;3254;47.372;8.512;2023-09-19T05:08:22;17.00;1.00
6443;DHT22;3254;47.372;8.512;2023-09-19T05:10:49;17.00;1.00
6443;DHT22;3254;47.372;8.512;2023-09-19T05:13:16;17.00;1.00
6443;DHT22;3254;47.372;8.512;2023-09-19T05:15:42;17.00;1.00
6443;DHT22;3254;47.372;8.512;2023-09-19T05:18:08;16.90;1.00
6443;DHT22;3254;47.372;8.512;2023-09-19T05:20:34;16.70;1.00
6443;DHT22;3254;47.372;8.512;2023-09-19T05:23:05;16.60;1.00
6443;DHT22;3254;47.372;8.512;2023-09-19T05:25:38;16.50;1.00
6443;DHT22;3254;47.372;8.512;2023-09-19T05:28:09;16.50;1.00
6443;DHT22;3254;47.372;8.512;2023-09-19T05:30:37;16.60;1.00
6443;DHT22;3254;47.372;8.512;2023-09-19T05:33:07;16.60;1.00
6443;DHT22;3254;47.372;8.512;2023-09-19T05:35:33;16.60;1.00
6443;DHT22;3254;47.372;8.512;2023-09-19T05:37:59;16.70;1.00
6443;DHT22;3254;47.372;8.512;2023-09-19T05:40:25;16.70;1.00
6443;DHT22;3254;47.372;8.512;2023-09-19T05:42:51;16.70;1.00
6443;DHT22;3254;47.372;8.512;2023-09-19T05:45:17;16.70;1.00
6443;DHT22;3254;47.372;8.512;2023-09-19T05:47:52;16.70;1.00
6443;DHT22;3254;47.372;8.512;2023-09-19T05:50:21;16.70;1.00
6443;DHT22;3254;47.372;8.512;2023-09-19T05:52:54;16.70;1.00
6443;DHT22;3254;47.372;8.512;2023-09-19T05:55:21;16.80;1.00
6443;DHT22;3254;47.372;8.512;2023-09-19T05:57:53;16.90;1.00
6443;DHT22;3254;47.372;8.512;2023-09-19T06:00:20;16.90;1.00
6443;DHT22;3254;47.372;8.512;2023-09-19T06:02:53;17.00;1.00
6443;DHT22;3254;47.372;8.512;2023-09-19T06:05:29;17.00;1.00
6443;DHT22;3254;47.372;8.512;2023-09-19T06:07:58;16.90;1.00
6443;DHT22;3254;47.372;8.512;2023-09-19T06:10:27;16.90;1.00
6443;DHT22;3254;47.372;8.512;2023-09-19T06:12:54;17.00;1.00
6443;DHT22;3254;47.372;8.512;2023-09-19T06:15:20;17.00;1.00
6443;DHT22;3254;47.372;8.512;2023-09-19T06:17:52;17.20;1.00
6443;DHT22;3254;47.372;8.512;2023-09-19T06:20:22;17.20;1.00
6443;DHT22;3254;47.372;8.512;2023-09-19T06:22:49;17.40;1.00
6443;DHT22;3254;47.372;8.512;2023-09-19T06:25:16;17.50;1.00
6443;DHT22;3254;47.372;8.512;2023-09-19T06:27:53;17.60;1.00
6443;DHT22;3254;47.372;8.512;2023-09-19T06:30:20;17.70;1.00
6443;DHT22;3254;47.372;8.512;2023-09-19T06:32:46;17.80;1.00
6443;DHT22;3254;47.372;8.512;2023-09-19T06:35:13;17.70;1.00
6443;DHT22;3254;47.372;8.512;2023-09-19T06:37:40;17.70;1.00
6443;DHT22;3254;47.372;8.512;2023-09-19T06:42:45;17.80;1.00
6443;DHT22;3254;47.372;8.512;2023-09-19T06:45:12;17.80;1.00
6443;DHT22;3254;47.372;8.512;2023-09-19T06:47:40;17.80;1.00
6443;DHT22;3254;47.372;8.512;2023-09-19T06:50:21;17.80;1.00
6443;DHT22;3254;47.372;8.512;2023-09-19T06:52:49;17.70;1.00
6443;DHT22;3254;47.372;8.512;2023-09-19T06:55:16;17.70;1.00
6443;DHT22;3254;47.372;8.512;2023-09-19T06:57:42;17.70;1.00
6443;DHT22;3254;47.372;8.512;2023-09-19T07:00:12;17.70;1.00
6443;DHT22;3254;47.372;8.512;2023-09-19T07:02:44;17.50;1.00
6443;DHT22;3254;47.372;8.512;2023-09-19T07:05:13;17.60;1.00
6443;DHT22;3254;47.372;8.512;2023-09-19T07:07:39;17.70;1.00
6443;DHT22;3254;47.372;8.512;2023-09-19T07:10:06;17.70;1.00
6443;DHT22;3254;47.372;8.512;2023-09-19T07:12:32;17.80;1.00
6443;DHT22;3254;47.372;8.512;2023-09-19T07:15:00;17.80;1.00
6443;DHT22;3254;47.372;8.512;2023-09-19T07:17:27;17.90;1.00
6443;DHT22;3254;47.372;8.512;2023-09-19T07:19:55;17.90;1.00
6443;DHT22;3254;47.372;8.512;2023-09-19T07:22:20;18.00;1.00
6443;DHT22;3254;47.372;8.512;2023-09-19T07:24:46;18.00;1.00
6443;DHT22;3254;47.372;8.512;2023-09-19T07:27:14;18.00;1.00
6443;DHT22;3254;47.372;8.512;2023-09-19T07:29:39;18.00;1.00
6443;DHT22;3254;47.372;8.512;2023-09-19T07:32:05;18.00;1.00
6443;DHT22;3254;47.372;8.512;2023-09-19T07:34:33;18.10;1.00
6443;DHT22;3254;47.372;8.512;2023-09-19T07:36:59;17.90;1.00
6443;DHT22;3254;47.372;8.512;2023-09-19T07:39:24;18.10;1.00
6443;DHT22;3254;47.372;8.512;2023-09-19T07:41:51;18.00;1.00
6443;DHT22;3254;47.372;8.512;2023-09-19T07:44:17;18.00;1.00
6443;DHT22;3254;47.372;8.512;2023-09-19T07:46:43;17.90;1.00
6443;DHT22;3254;47.372;8.512;2023-09-19T07:49:09;18.10;1.00
6443;DHT22;3254;47.372;8.512;2023-09-19T07:51:39;18.10;1.00
6443;DHT22;3254;47.372;8.512;2023-09-19T07:54:06;18.20;1.00
6443;DHT22;3254;47.372;8.512;2023-09-19T07:56:31;18.40;1.00
6443;DHT22;3254;47.372;8.512;2023-09-19T07:59:00;18.50;1.00
6443;DHT22;3254;47.372;8.512;2023-09-19T08:01:27;18.60;1.00
6443;DHT22;3254;47.372;8.512;2023-09-19T08:03:54;18.60;1.00
6443;DHT22;3254;47.372;8.512;2023-09-19T08:06:24;18.60;1.00
6443;DHT22;3254;47.372;8.512;2023-09-19T08:08:54;18.50;1.00
6443;DHT22;3254;47.372;8.512;2023-09-19T08:11:22;18.60;1.00
6443;DHT22;3254;47.372;8.512;2023-09-19T08:13:50;18.60;1.00
6443;DHT22;3254;47.372;8.512;2023-09-19T08:16:16;18.80;1.00
6443;DHT22;3254;47.372;8.512;2023-09-19T08:18:47;18.80;1.00
6443;DHT22;3254;47.372;8.512;2023-09-19T08:21:15;18.50;1.00
6443;DHT22;3254;47.372;8.512;2023-09-19T08:23:41;18.60;1.00
6443;DHT22;3254;47.372;8.512;2023-09-19T08:26:07;18.70;1.00
6443;DHT22;3254;47.372;8.512;2023-09-19T08:28:36;19.00;1.00
6443;DHT22;3254;47.372;8.512;2023-09-19T08:31:04;19.40;1.00
6443;DHT22;3254;47.372;8.512;2023-09-19T08:33:36;19.90;1.00
6443;DHT22;3254;47.372;8.512;2023-09-19T08:36:03;19.90;1.00
6443;DHT22;3254;47.372;8.512;2023-09-19T08:38:34;19.60;1.00
6443;DHT22;3254;47.372;8.512;2023-09-19T08:41:06;19.80;1.00
6443;DHT22;3254;47.372;8.512;2023-09-19T08:43:35;20.00;1.00
6443;DHT22;3254;47.372;8.512;2023-09-19T08:46:12;19.70;1.00
6443;DHT22;3254;47.372;8.512;2023-09-19T08:48:46;19.80;1.00
6443;DHT22;3254;47.372;8.512;2023-09-19T08:51:21;19.80;1.00
6443;DHT22;3254;47.372;8.512;2023-09-19T08:54:07;19.70;1.00
6443;DHT22;3254;47.372;8.512;2023-09-19T08:56:34;19.50;1.00
6443;DHT22;3254;47.372;8.512;2023-09-19T08:59:03;19.30;1.00
6443;DHT22;3254;47.372;8.512;2023-09-19T09:01:31;19.40;1.00
6443;DHT22;3254;47.372;8.512;2023-09-19T09:03:59;19.90;1.00
6443;DHT22;3254;47.372;8.512;2023-09-19T09:06:26;19.80;1.00
6443;DHT22;3254;47.372;8.512;2023-09-19T09:08:54;19.80;1.00
6443;DHT22;3254;47.372;8.512;2023-09-19T09:11:20;19.80;1.00
6443;DHT22;3254;47.372;8.512;2023-09-19T09:13:47;19.80;1.00
6443;DHT22;3254;47.372;8.512;2023-09-19T09:16:16;19.90;1.00
6443;DHT22;3254;47.372;8.512;2023-09-19T09:18:46;19.90;1.00
6443;DHT22;3254;47.372;8.512;2023-09-19T09:21:18;20.00;1.00
6443;DHT22;3254;47.372;8.512;2023-09-19T09:23:43;20.00;1.00
6443;DHT22;3254;47.372;8.512;2023-09-19T09:26:10;20.20;1.00
6443;DHT22;3254;47.372;8.512;2023-09-19T09:28:36;20.70;1.00
6443;DHT22;3254;47.372;8.512;2023-09-19T09:31:24;20.80;1.00
6443;DHT22;3254;47.372;8.512;2023-09-19T09:33:54;20.50;1.00
6443;DHT22;3254;47.372;8.512;2023-09-19T09:36:34;20.90;1.00
6443;DHT22;3254;47.372;8.512;2023-09-19T09:39:00;21.80;1.00
6443;DHT22;3254;47.372;8.512;2023-09-19T09:41:41;21.80;1.00
6443;DHT22;3254;47.372;8.512;2023-09-19T09:44:16;22.30;1.00
6443;DHT22;3254;47.372;8.512;2023-09-19T09:46:48;22.60;1.00
6443;DHT22;3254;47.372;8.512;2023-09-19T09:49:40;23.60;1.00
6443;DHT22;3254;47.372;8.512;2023-09-19T09:52:07;24.00;1.00
6443;DHT22;3254;47.372;8.512;2023-09-19T09:54:35;22.70;1.00
6443;DHT22;3254;47.372;8.512;2023-09-19T09:57:09;22.30;1.00
6443;DHT22;3254;47.372;8.512;2023-09-19T09:59:50;21.80;1.00
6443;DHT22;3254;47.372;8.512;2023-09-19T10:02:26;21.60;1.00
6443;DHT22;3254;47.372;8.512;2023-09-19T10:04:58;22.60;1.00
6443;DHT22;3254;47.372;8.512;2023-09-19T10:07:40;22.70;1.00
6443;DHT22;3254;47.372;8.512;2023-09-19T10:10:08;23.20;1.00
6443;DHT22;3254;47.372;8.512;2023-09-19T10:12:48;23.20;1.00
6443;DHT22;3254;47.372;8.512;2023-09-19T10:15:19;23.60;1.00
6443;DHT22;3254;47.372;8.512;2023-09-19T10:17:51;23.70;1.00
6443;DHT22;3254;47.372;8.512;2023-09-19T10:20:20;24.00;1.00
6443;DHT22;3254;47.372;8.512;2023-09-19T10:23:01;24.80;1.00
6443;DHT22;3254;47.372;8.512;2023-09-19T10:25:37;25.30;1.00
6443;DHT22;3254;47.372;8.512;2023-09-19T10:28:06;25.80;1.00
6443;DHT22;3254;47.372;8.512;2023-09-19T10:30:48;25.20;1.00
6443;DHT22;3254;47.372;8.512;2023-09-19T10:33:24;25.60;1.00
6443;DHT22;3254;47.372;8.512;2023-09-19T10:35:53;26.30;1.00
6443;DHT22;3254;47.372;8.512;2023-09-19T10:38:27;25.80;1.00
6443;DHT22;3254;47.372;8.512;2023-09-19T10:40:56;25.20;1.00
6443;DHT22;3254;47.372;8.512;2023-09-19T10:43:29;25.20;1.00
6443;DHT22;3254;47.372;8.512;2023-09-19T10:46:00;25.10;1.00
6443;DHT22;3254;47.372;8.512;2023-09-19T10:48:26;25.50;1.00
6443;DHT22;3254;47.372;8.512;2023-09-19T10:51:11;26.30;1.00
6443;DHT22;3254;47.372;8.512;2023-09-19T10:54:05;26.40;1.00
6443;DHT22;3254;47.372;8.512;2023-09-19T10:56:42;26.00;1.00
6443;DHT22;3254;47.372;8.512;2023-09-19T10:59:11;25.90;1.00
6443;DHT22;3254;47.372;8.512;2023-09-19T11:01:46;25.70;1.00
6443;DHT22;3254;47.372;8.512;2023-09-19T11:04:31;25.90;1.00
6443;DHT22;3254;47.372;8.512;2023-09-19T11:07:07;25.50;1.00
6443;DHT22;3254;47.372;8.512;2023-09-19T11:09:52;25.00;1.00
6443;DHT22;3254;47.372;8.512;2023-09-19T11:18:51;25.10;1.00
6443;DHT22;3254;47.372;8.512;2023-09-19T11:24:28;25.90;1.00
6443;DHT22;3254;47.372;8.512;2023-09-19T11:27:13;26.60;1.00
6443;DHT22;3254;47.372;8.512;2023-09-19T11:29:39;27.00;1.00
6443;DHT22;3254;47.372;8.512;2023-09-19T11:32:06;27.30;1.00
6443;DHT22;3254;47.372;8.512;2023-09-19T11:34:39;27.10;1.00
6443;DHT22;3254;47.372;8.512;2023-09-19T11:39:37;26.80;1.00
6443;DHT22;3254;47.372;8.512;2023-09-19T11:42:41;26.90;1.00
6443;DHT22;3254;47.372;8.512;2023-09-19T11:46:00;26.30;1.00
6443;DHT22;3254;47.372;8.512;2023-09-19T11:47:55;27.00;1.00
6443;DHT22;3254;47.372;8.512;2023-09-19T11:50:24;28.80;1.00
6443;DHT22;3254;47.372;8.512;2023-09-19T11:52:51;30.00;1.00
6443;DHT22;3254;47.372;8.512;2023-09-19T11:55:17;30.90;1.00
6443;DHT22;3254;47.372;8.512;2023-09-19T11:57:50;29.30;1.00
6443;DHT22;3254;47.372;8.512;2023-09-19T12:00:17;28.80;1.00
6443;DHT22;3254;47.372;8.512;2023-09-19T12:02:46;29.20;1.00
6443;DHT22;3254;47.372;8.512;2023-09-19T12:05:14;29.80;1.00
6443;DHT22;3254;47.372;8.512;2023-09-19T12:07:44;29.50;1.00
6443;DHT22;3254;47.372;8.512;2023-09-19T12:10:13;30.30;1.00
6443;DHT22;3254;47.372;8.512;2023-09-19T12:12:47;30.10;1.00
6443;DHT22;3254;47.372;8.512;2023-09-19T12:15:13;29.90;1.00
6443;DHT22;3254;47.372;8.512;2023-09-19T12:17:41;31.00;1.00
6443;DHT22;3254;47.372;8.512;2023-09-19T12:20:08;29.70;1.00
6443;DHT22;3254;47.372;8.512;2023-09-19T12:22:43;29.50;1.00
6443;DHT22;3254;47.372;8.512;2023-09-19T12:25:09;30.50;1.00
6443;DHT22;3254;47.372;8.512;2023-09-19T12:27:46;30.60;1.00
6443;DHT22;3254;47.372;8.512;2023-09-19T12:30:14;31.60;1.00
6443;DHT22;3254;47.372;8.512;2023-09-19T12:32:40;28.60;1.00
6443;DHT22;3254;47.372;8.512;2023-09-19T12:35:08;28.40;1.00
6443;DHT22;3254;47.372;8.512;2023-09-19T12:37:44;28.90;1.00
6443;DHT22;3254;47.372;8.512;2023-09-19T12:40:14;28.30;1.00
6443;DHT22;3254;47.372;8.512;2023-09-19T12:42:44;28.30;1.00
6443;DHT22;3254;47.372;8.512;2023-09-19T12:45:11;27.70;1.00
6443;DHT22;3254;47.372;8.512;2023-09-19T12:47:39;28.00;1.00
6443;DHT22;3254;47.372;8.512;2023-09-19T12:50:16;27.90;1.00
6443;DHT22;3254;47.372;8.512;2023-09-19T12:52:52;29.20;1.00
6443;DHT22;3254;47.372;8.512;2023-09-19T12:55:30;30.10;1.00
6443;DHT22;3254;47.372;8.512;2023-09-19T12:58:14;29.30;1.00
6443;DHT22;3254;47.372;8.512;2023-09-19T13:00:45;29.40;1.00
6443;DHT22;3254;47.372;8.512;2023-09-19T13:03:18;29.40;1.00
6443;DHT22;3254;47.372;8.512;2023-09-19T13:08:27;29.90;1.00
6443;DHT22;3254;47.372;8.512;2023-09-19T13:11:13;31.30;1.00
6443;DHT22;3254;47.372;8.512;2023-09-19T13:13:45;32.70;1.00
6443;DHT22;3254;47.372;8.512;2023-09-19T13:16:15;33.30;1.00
6443;DHT22;3254;47.372;8.512;2023-09-19T13:18:46;32.70;1.00
6443;DHT22;3254;47.372;8.512;2023-09-19T13:21:13;31.00;1.00
6443;DHT22;3254;47.372;8.512;2023-09-19T13:23:55;31.00;1.00
6443;DHT22;3254;47.372;8.512;2023-09-19T13:26:27;31.30;1.00
6443;DHT22;3254;47.372;8.512;2023-09-19T13:28:54;30.80;1.00
6443;DHT22;3254;47.372;8.512;2023-09-19T13:31:20;30.30;1.00
6443;DHT22;3254;47.372;8.512;2023-09-19T13:33:48;30.90;1.00
6443;DHT22;3254;47.372;8.512;2023-09-19T13:36:14;31.60;1.00
6443;DHT22;3254;47.372;8.512;2023-09-19T13:38:41;32.20;1.00
6443;DHT22;3254;47.372;8.512;2023-09-19T13:41:10;31.30;1.00
6443;DHT22;3254;47.372;8.512;2023-09-19T13:43:37;30.50;1.00
6443;DHT22;3254;47.372;8.512;2023-09-19T13:46:04;30.90;1.00
6443;DHT22;3254;47.372;8.512;2023-09-19T13:48:30;31.20;1.00
6443;DHT22;3254;47.372;8.512;2023-09-19T13:50:56;30.60;1.00
6443;DHT22;3254;47.372;8.512;2023-09-19T13:53:22;30.40;1.00
6443;DHT22;3254;47.372;8.512;2023-09-19T13:55:47;30.50;1.00
6443;DHT22;3254;47.372;8.512;2023-09-19T13:58:14;31.30;1.00
6443;DHT22;3254;47.372;8.512;2023-09-19T14:00:40;30.90;1.00
6443;DHT22;3254;47.372;8.512;2023-09-19T14:03:06;29.10;1.00
6443;DHT22;3254;47.372;8.512;2023-09-19T14:05:32;28.40;1.00
6443;DHT22;3254;47.372;8.512;2023-09-19T14:07:58;28.90;1.00
6443;DHT22;3254;47.372;8.512;2023-09-19T14:10:26;28.70;1.00
6443;DHT22;3254;47.372;8.512;2023-09-19T14:12:53;28.00;1.00
6443;DHT22;3254;47.372;8.512;2023-09-19T14:15:18;26.90;1.00
6443;DHT22;3254;47.372;8.512;2023-09-19T14:17:44;26.70;1.00
6443;DHT22;3254;47.372;8.512;2023-09-19T14:20:11;26.50;1.00
6443;DHT22;3254;47.372;8.512;2023-09-19T14:22:37;27.70;1.00
6443;DHT22;3254;47.372;8.512;2023-09-19T14:25:04;29.00;1.00
6443;DHT22;3254;47.372;8.512;2023-09-19T14:27:31;30.40;1.00
6443;DHT22;3254;47.372;8.512;2023-09-19T14:29:57;29.90;1.00
6443;DHT22;3254;47.372;8.512;2023-09-19T14:32:23;29.70;1.00
6443;DHT22;3254;47.372;8.512;2023-09-19T14:34:49;29.80;1.00
6443;DHT22;3254;47.372;8.512;2023-09-19T14:37:15;29.80;1.00
6443;DHT22;3254;47.372;8.512;2023-09-19T14:39:42;28.50;1.00
6443;DHT22;3254;47.372;8.512;2023-09-19T14:42:11;28.50;1.00
6443;DHT22;3254;47.372;8.512;2023-09-19T14:44:40;28.10;1.00
6443;DHT22;3254;47.372;8.512;2023-09-19T14:47:07;28.30;1.00
6443;DHT22;3254;47.372;8.512;2023-09-19T14:49:36;29.10;1.00
6443;DHT22;3254;47.372;8.512;2023-09-19T14:52:09;28.70;1.00
6443;DHT22;3254;47.372;8.512;2023-09-19T14:54:35;28.10;1.00
6443;DHT22;3254;47.372;8.512;2023-09-19T14:57:03;28.10;1.00
6443;DHT22;3254;47.372;8.512;2023-09-19T14:59:33;28.60;1.00
6443;DHT22;3254;47.372;8.512;2023-09-19T15:02:00;28.30;1.00
6443;DHT22;3254;47.372;8.512;2023-09-19T15:04:27;28.10;1.00
6443;DHT22;3254;47.372;8.512;2023-09-19T15:06:52;28.20;1.00
6443;DHT22;3254;47.372;8.512;2023-09-19T15:09:21;29.10;1.00
6443;DHT22;3254;47.372;8.512;2023-09-19T15:11:55;29.40;1.00
6443;DHT22;3254;47.372;8.512;2023-09-19T15:14:21;30.30;1.00
6443;DHT22;3254;47.372;8.512;2023-09-19T15:16:48;31.00;1.00
6443;DHT22;3254;47.372;8.512;2023-09-19T15:19:14;31.30;1.00
6443;DHT22;3254;47.372;8.512;2023-09-19T15:21:40;31.20;1.00
6443;DHT22;3254;47.372;8.512;2023-09-19T15:24:06;30.30;1.00
6443;DHT22;3254;47.372;8.512;2023-09-19T15:26:38;29.10;1.00
6443;DHT22;3254;47.372;8.512;2023-09-19T15:29:09;29.40;1.00
6443;DHT22;3254;47.372;8.512;2023-09-19T15:31:38;30.10;1.00
6443;DHT22;3254;47.372;8.512;2023-09-19T15:34:04;30.10;1.00
6443;DHT22;3254;47.372;8.512;2023-09-19T15:36:32;28.80;1.00
6443;DHT22;3254;47.372;8.512;2023-09-19T15:39:06;29.30;1.00
6443;DHT22;3254;47.372;8.512;2023-09-19T15:41:35;30.60;1.00
6443;DHT22;3254;47.372;8.512;2023-09-19T15:44:03;31.80;1.00
6443;DHT22;3254;47.372;8.512;2023-09-19T15:46:31;31.50;1.00
6443;DHT22;3254;47.372;8.512;2023-09-19T15:48:58;31.60;1.00
6443;DHT22;3254;47.372;8.512;2023-09-19T15:51:27;30.10;1.00
6443;DHT22;3254;47.372;8.512;2023-09-19T15:53:54;30.20;1.00
6443;DHT22;3254;47.372;8.512;2023-09-19T15:56:21;29.90;1.00
6443;DHT22;3254;47.372;8.512;2023-09-19T15:58:51;30.00;1.00
6443;DHT22;3254;47.372;8.512;2023-09-19T16:01:19;29.50;1.00
6443;DHT22;3254;47.372;8.512;2023-09-19T16:03:47;29.90;1.00
6443;DHT22;3254;47.372;8.512;2023-09-19T16:06:22;29.90;1.00
6443;DHT22;3254;47.372;8.512;2023-09-19T16:08:51;30.00;1.00
6443;DHT22;3254;47.372;8.512;2023-09-19T16:11:20;29.90;1.00
6443;DHT22;3254;47.372;8.512;2023-09-19T16:13:48;30.00;1.00
6443;DHT22;3254;47.372;8.512;2023-09-19T16:16:15;29.20;1.00
6443;DHT22;3254;47.372;8.512;2023-09-19T16:18:51;29.70;1.00
6443;DHT22;3254;47.372;8.512;2023-09-19T16:21:18;28.20;1.00
6443;DHT22;3254;47.372;8.512;2023-09-19T16:23:49;28.70;1.00
6443;DHT22;3254;47.372;8.512;2023-09-19T16:26:17;29.00;1.00
6443;DHT22;3254;47.372;8.512;2023-09-19T16:28:49;29.60;1.00
6443;DHT22;3254;47.372;8.512;2023-09-19T16:31:15;29.00;1.00
6443;DHT22;3254;47.372;8.512;2023-09-19T16:33:44;28.50;1.00
6443;DHT22;3254;47.372;8.512;2023-09-19T16:36:15;28.30;1.00
6443;DHT22;3254;47.372;8.512;2023-09-19T16:38:43;28.90;1.00
6443;DHT22;3254;47.372;8.512;2023-09-19T16:41:09;29.20;1.00
6443;DHT22;3254;47.372;8.512;2023-09-19T16:43:35;29.20;1.00
6443;DHT22;3254;47.372;8.512;2023-09-19T16:46:05;28.90;1.00
6443;DHT22;3254;47.372;8.512;2023-09-19T16:48:34;29.20;1.00
6443;DHT22;3254;47.372;8.512;2023-09-19T16:51:05;28.20;1.00
6443;DHT22;3254;47.372;8.512;2023-09-19T16:53:32;28.90;1.00
6443;DHT22;3254;47.372;8.512;2023-09-19T16:56:07;29.00;1.00
6443;DHT22;3254;47.372;8.512;2023-09-19T16:58:41;28.30;1.00
6443;DHT22;3254;47.372;8.512;2023-09-19T17:01:12;28.60;1.00